Airfield :
LOGIN :

Register | Disclaimer

   EN    FR    IT 

 










Legend :    VFR   Marginal VFR   IFR   Intensive IFR   Very Intensive IFR
Visi :
Ceiling :
>= 8 km
>= 3000ft
5 to 8 km
1000 to 3000 ft
1500m to 5 km
500 to 1000 ft
800 to 1500m
200 to 500 ft
< 800m
< 200 ft
Symbols :   Thunderstorms  Fog  Heavy snow  Heavy precipitations  Wind > 20 kt
SIGMETs :     Misc.  Thunderstorms  Icing  Turbulence  Mountain Waves  Volcanic Ashes






- Airport Elevation : 3 ft
- IATA code : LWR


EHLW - Leuuwarden Air Base

CURRENT METAR :
  • 202025Z AUTO 19005KT 140V230 9999 BKN100 OVC150 13/11 Q1005 BLU

EXPIRED METARs :
  • 201955Z AUTO 19008KT 140V220 9999 OVC140 13/11 Q1005 BLU
  • 201925Z AUTO 19007KT 150V210 9999 OVC150 13/11 Q1005 BLU
  • 201855Z AUTO 19011KT 140V230 9999 FEW088 OVC140 13/11 Q1005 BLU
  • 201825Z AUTO 19012KT 150V220 9999 FEW086 OVC140 13/11 Q1005 BLU
  • 201755Z AUTO 20010KT 150V230 9999 BKN026 BKN029 OVC130 13/11 Q1005 BLU
  • 201726Z AUTO 19009KT 150V220 9999 OVC025 13/11 Q1005 BLU

TAF COR TAF EHLW
Valid from the 20 at 17:00 until the 21 at 05:00 UTC


201646Z 2017/2105 19009KT 9999 SCT024 BKN035
PROB40
TEMPO 2020/2105 SCT010 BKN015
PROB30
TEMPO 2022/2105 SCT006 BKN010



MET'MAP, your aeronautical weather chart ! - Copyright ORBIFLY December 2007 - Disclaimer

ORBIFLY MET'MAP TEAM :

Programming & Development : Alexandra Zaïnal
Concept & original design : Baudouin d'Aumeries
Assistance for programming : Marc-Olivier Méhu
Technical & hardware support : Manuel Goepfert

Contact : metmap@orbifly.com




SOURCES & CREDITS :

   NOAA